createdAt,value
2023-01-18T00:01:11.316Z,98561.42
2023-01-18T00:03:38.253Z,98560.86
2023-01-18T00:06:06.347Z,98561.48
2023-01-18T00:08:33.693Z,98565.48
2023-01-18T00:11:12.044Z,98572.82
2023-01-18T00:13:39.007Z,98576.73
2023-01-18T00:16:14.017Z,98576.14
2023-01-18T00:18:41.433Z,98575.02
2023-01-18T00:21:09.843Z,98576.33
2023-01-18T00:23:36.681Z,98576.27
2023-01-18T00:26:05.456Z,98573.61
2023-01-18T00:28:32.779Z,98570.38
2023-01-18T00:30:59.520Z,98570.66
2023-01-18T00:33:26.382Z,98568.52
2023-01-18T00:35:56.093Z,98569.22
2023-01-18T00:38:22.742Z,98559.86
2023-01-18T00:40:49.748Z,98560.81
2023-01-18T00:43:35.192Z,98555.37
2023-01-18T00:46:01.916Z,98548.47
2023-01-18T00:48:28.767Z,98545.84
2023-01-18T00:50:55.379Z,98550.25
2023-01-18T00:53:21.994Z,98546.95
2023-01-18T00:55:48.715Z,98544.52
2023-01-18T00:58:15.803Z,98546.18
2023-01-18T01:00:42.500Z,98550.02
2023-01-18T01:03:09.291Z,98548.53
2023-01-18T01:07:30.349Z,98545.62
2023-01-18T01:09:58.090Z,98539.71
2023-01-18T01:12:43.956Z,98541.88
2023-01-18T01:15:30.270Z,98535.61
2023-01-18T01:18:15.918Z,98537.44
2023-01-18T01:21:01.427Z,98527.75
2023-01-18T01:23:47.188Z,98524.73
2023-01-18T01:26:14.333Z,98525.08
2023-01-18T01:28:45.758Z,98528.81
2023-01-18T01:31:14.711Z,98529.75
2023-01-18T01:33:41.853Z,98529.55
2023-01-18T01:36:11.033Z,98532.23
2023-01-18T01:38:38.999Z,98531.78
2023-01-18T01:41:30.104Z,98528.67
2023-01-18T01:43:58.590Z,98519.98
2023-01-18T01:46:41.747Z,98505.55
2023-01-18T01:49:11.015Z,98501.27
2023-01-18T01:51:39.918Z,98499.25
2023-01-18T01:54:11.300Z,98497.23
2023-01-18T01:56:38.400Z,98495.33
2023-01-18T01:59:05.252Z,98498.79
2023-01-18T02:01:32.080Z,98499.83
2023-01-18T02:03:59.167Z,98501.60
2023-01-18T02:06:31.649Z,98510.08
2023-01-18T02:09:02.618Z,98500.49
2023-01-18T02:11:29.912Z,98497.82
2023-01-18T02:13:58.238Z,98497.25
2023-01-18T02:16:32.849Z,98487.80
2023-01-18T02:19:13.692Z,98483.08
2023-01-18T02:21:47.335Z,98488.73
2023-01-18T02:24:19.454Z,98488.93
2023-01-18T02:26:53.882Z,98482.92
2023-01-18T02:29:42.918Z,98480.45
2023-01-18T02:32:37.924Z,98481.30
2023-01-18T02:35:11.113Z,98484.02
2023-01-18T02:38:02.672Z,98472.64
2023-01-18T02:40:39.828Z,98466.06
2023-01-18T02:43:26.774Z,98468.47
2023-01-18T02:46:12.390Z,98465.01
2023-01-18T02:48:41.291Z,98461.90
2023-01-18T02:51:08.190Z,98451.33
2023-01-18T02:53:38.545Z,98446.45
2023-01-18T02:56:27.128Z,98444.84
2023-01-18T02:59:05.092Z,98447.30
2023-01-18T03:01:45.870Z,98439.54
2023-01-18T03:04:28.731Z,98440.05
2023-01-18T03:06:59.013Z,98437.66
2023-01-18T03:09:27.364Z,98445.30
2023-01-18T03:11:54.316Z,98444.40
2023-01-18T03:14:39.564Z,98441.02
2023-01-18T03:17:25.460Z,98433.23
2023-01-18T03:20:07.356Z,98454.27
2023-01-18T03:23:07.764Z,98450.11
2023-01-18T03:25:36.799Z,98449.31
2023-01-18T03:28:24.808Z,98463.26
2023-01-18T03:31:11.062Z,98456.45
2023-01-18T03:33:46.333Z,98454.73
2023-01-18T03:36:24.456Z,98457.09
2023-01-18T03:39:10.735Z,98449.05
2023-01-18T03:41:40.759Z,98453.98
2023-01-18T03:44:12.933Z,98458.45
2023-01-18T03:46:39.867Z,98453.73
2023-01-18T03:49:07.220Z,98448.65
2023-01-18T03:51:42.093Z,98443.29
2023-01-18T03:54:23.154Z,98438.20
2023-01-18T03:56:56.312Z,98429.79
2023-01-18T03:59:23.399Z,98431.38
2023-01-18T04:01:50.380Z,98445.89
2023-01-18T04:04:17.629Z,98447.58
2023-01-18T04:06:44.509Z,98442.88
2023-01-18T04:09:12.193Z,98436.27
2023-01-18T04:11:39.025Z,98442.89
2023-01-18T04:14:06.233Z,98435.16
2023-01-18T04:16:33.318Z,98437.86
2023-01-18T04:19:00.418Z,98432.52
2023-01-18T04:21:27.549Z,98447.34
2023-01-18T04:23:54.458Z,98438.41
2023-01-18T04:26:21.313Z,98437.39
2023-01-18T04:28:48.144Z,98440.23
2023-01-18T04:31:15.026Z,98445.79
2023-01-18T04:33:41.852Z,98439.02
2023-01-18T04:36:09.392Z,98432.19
2023-01-18T04:38:36.253Z,98435.51
2023-01-18T04:41:04.363Z,98433.13
2023-01-18T04:43:31.388Z,98426.74
2023-01-18T04:45:58.392Z,98431.86
2023-01-18T04:48:25.391Z,98440.93
2023-01-18T04:50:52.445Z,98435.97
2023-01-18T04:53:19.437Z,98430.70
2023-01-18T04:55:46.398Z,98433.81
2023-01-18T04:58:13.332Z,98441.75
2023-01-18T05:00:40.252Z,98439.11
2023-01-18T05:03:08.412Z,98421.42
2023-01-18T05:05:35.290Z,98422.40
2023-01-18T05:08:02.199Z,98425.83
2023-01-18T05:10:29.101Z,98419.88
2023-01-18T05:12:56.199Z,98423.93
2023-01-18T05:15:23.279Z,98421.35
2023-01-18T05:17:50.050Z,98427.46
2023-01-18T05:20:16.888Z,98419.02
2023-01-18T05:22:44.005Z,98408.27
2023-01-18T05:25:10.972Z,98406.27
2023-01-18T05:27:37.815Z,98406.70
2023-01-18T05:30:06.842Z,98411.09
2023-01-18T05:32:33.939Z,98414.17
2023-01-18T05:35:00.830Z,98406.77
2023-01-18T05:37:27.569Z,98397.63
2023-01-18T05:39:54.395Z,98393.05
2023-01-18T05:42:21.151Z,98390.04
2023-01-18T05:44:47.967Z,98382.27
2023-01-18T05:47:14.887Z,98387.70
2023-01-18T05:49:42.062Z,98368.39
2023-01-18T05:52:08.921Z,98378.15
2023-01-18T05:54:35.756Z,98363.60
2023-01-18T05:57:02.678Z,98362.98
2023-01-18T05:59:29.518Z,98359.20
2023-01-18T06:01:56.762Z,98369.36
2023-01-18T06:04:23.812Z,98352.00
2023-01-18T06:06:50.657Z,98343.43
2023-01-18T06:09:17.459Z,98343.48
2023-01-18T06:11:44.311Z,98340.23
2023-01-18T06:14:11.037Z,98345.40
2023-01-18T06:16:37.956Z,98347.04
2023-01-18T06:19:05.784Z,98342.89
2023-01-18T06:21:32.740Z,98345.42
2023-01-18T06:23:59.590Z,98353.88
2023-01-18T06:26:26.425Z,98349.27
2023-01-18T06:28:53.670Z,98352.92
2023-01-18T06:31:20.502Z,98347.66
2023-01-18T06:33:48.711Z,98342.70
2023-01-18T06:36:15.530Z,98339.67
2023-01-18T06:38:42.818Z,98344.70
2023-01-18T06:41:09.827Z,98346.70
2023-01-18T06:43:36.711Z,98346.80
2023-01-18T06:46:04.878Z,98342.41
2023-01-18T06:48:31.721Z,98349.66
2023-01-18T06:50:58.712Z,98345.98
2023-01-18T06:53:25.923Z,98352.65
2023-01-18T06:55:57.142Z,98339.32
2023-01-18T06:58:26.035Z,98338.99
2023-01-18T07:00:58.504Z,98338.35
2023-01-18T07:03:26.048Z,98333.08
2023-01-18T07:05:56.722Z,98338.15
2023-01-18T07:08:23.941Z,98338.39
2023-01-18T07:10:52.666Z,98340.54
2023-01-18T07:13:20.157Z,98333.07
2023-01-18T07:15:54.316Z,98332.60
2023-01-18T07:18:21.139Z,98333.54
2023-01-18T07:20:47.996Z,98327.55
2023-01-18T07:23:14.786Z,98323.91
2023-01-18T07:25:41.587Z,98330.58
2023-01-18T07:28:09.296Z,98331.85
2023-01-18T07:30:36.076Z,98334.05
2023-01-18T07:33:02.916Z,98328.46
2023-01-18T07:35:29.712Z,98331.17
2023-01-18T07:37:56.487Z,98323.36
2023-01-18T07:40:23.373Z,98320.08
2023-01-18T07:42:57.043Z,98315.89
2023-01-18T07:45:24.163Z,98319.33
2023-01-18T07:47:53.102Z,98317.12
2023-01-18T07:50:22.079Z,98320.12
2023-01-18T07:52:48.898Z,98314.21
2023-01-18T07:55:15.965Z,98319.35
2023-01-18T07:57:42.820Z,98307.72
2023-01-18T08:00:11.311Z,98305.17
2023-01-18T08:02:41.167Z,98312.10
2023-01-18T08:05:10.696Z,98309.84
2023-01-18T08:07:37.563Z,98312.00
2023-01-18T08:10:04.642Z,98304.36
2023-01-18T08:12:34.010Z,98312.46
2023-01-18T08:15:01.077Z,98290.63
2023-01-18T08:17:29.893Z,98286.73
2023-01-18T08:19:56.758Z,98297.29
2023-01-18T08:22:23.735Z,98302.69
2023-01-18T08:24:50.574Z,98297.36
2023-01-18T08:27:17.635Z,98303.91
2023-01-18T08:29:46.115Z,98309.73
2023-01-18T08:32:12.959Z,98301.18
2023-01-18T08:34:40.195Z,98293.60
2023-01-18T08:37:07.265Z,98294.60
2023-01-18T08:39:34.193Z,98294.84
2023-01-18T08:42:01.145Z,98290.69
2023-01-18T08:44:28.798Z,98286.91
2023-01-18T08:46:55.736Z,98291.23
2023-01-18T08:49:22.696Z,98285.44
2023-01-18T08:51:49.834Z,98287.18
2023-01-18T08:54:16.629Z,98281.68
2023-01-18T08:56:43.539Z,98272.40
2023-01-18T08:59:10.637Z,98270.92
2023-01-18T09:01:37.787Z,98272.77
2023-01-18T09:04:04.872Z,98272.73
2023-01-18T09:06:34.066Z,98266.96
2023-01-18T09:09:01.270Z,98265.08
2023-01-18T09:11:28.313Z,98254.29
2023-01-18T09:14:01.085Z,98249.14
2023-01-18T09:16:29.965Z,98258.56
2023-01-18T09:18:58.449Z,98246.51
2023-01-18T09:21:27.986Z,98243.11
2023-01-18T09:23:55.263Z,98244.20
2023-01-18T09:26:22.254Z,98248.30
2023-01-18T09:28:52.769Z,98239.69
2023-01-18T09:31:21.258Z,98236.38
2023-01-18T09:33:53.291Z,98237.50
2023-01-18T09:36:24.097Z,98241.23
2023-01-18T09:38:50.928Z,98233.52
2023-01-18T09:41:36.320Z,98245.52
2023-01-18T09:44:36.460Z,98238.67
2023-01-18T09:47:18.156Z,98237.14
2023-01-18T09:49:58.830Z,98243.18
2023-01-18T09:52:37.990Z,98234.84
2023-01-18T09:55:10.853Z,98233.92
2023-01-18T09:57:44.916Z,98226.61
2023-01-18T10:00:35.369Z,98229.95
2023-01-18T10:03:10.657Z,98222.64
2023-01-18T10:05:40.616Z,98223.22
2023-01-18T10:08:15.015Z,98220.90
2023-01-18T10:10:56.244Z,98232.08
2023-01-18T10:13:42.209Z,98227.34
2023-01-18T10:16:14.656Z,98222.80
2023-01-18T10:18:45.939Z,98230.45
2023-01-18T10:21:20.227Z,98223.30
2023-01-18T10:23:55.399Z,98234.95
2023-01-18T10:26:29.738Z,98215.10
2023-01-18T10:29:16.804Z,98212.14
2023-01-18T10:31:50.926Z,98212.31
2023-01-18T10:34:20.247Z,98202.38
2023-01-18T10:36:55.280Z,98187.12
2023-01-18T10:39:28.152Z,98198.79
2023-01-18T10:41:57.803Z,98198.12
2023-01-18T10:44:24.623Z,98190.45
2023-01-18T10:46:57.621Z,98203.46
2023-01-18T10:49:34.686Z,98203.38
2023-01-18T10:52:37.191Z,98190.25
2023-01-18T10:55:07.643Z,98190.24
2023-01-18T10:57:36.413Z,98203.88
2023-01-18T11:00:12.671Z,98197.98
2023-01-18T11:02:39.540Z,98203.57
2023-01-18T11:05:32.966Z,98195.09
2023-01-18T11:08:14.511Z,98190.31
2023-01-18T11:10:44.478Z,98191.90
2023-01-18T11:13:25.583Z,98191.32
2023-01-18T11:16:10.181Z,98186.35
2023-01-18T11:18:37.460Z,98187.58
2023-01-18T11:21:09.380Z,98182.24
2023-01-18T11:23:36.473Z,98190.53
2023-01-18T11:26:17.655Z,98189.94
2023-01-18T11:28:53.545Z,98193.70
2023-01-18T11:31:22.515Z,98188.32
2023-01-18T11:34:00.459Z,98186.23
2023-01-18T11:36:39.346Z,98185.91
2023-01-18T11:39:25.479Z,98185.33
2023-01-18T11:41:52.934Z,98190.86
2023-01-18T11:44:23.688Z,98181.38
2023-01-18T11:46:53.017Z,98184.27
2023-01-18T11:49:38.952Z,98189.46
2023-01-18T11:53:04.996Z,98178.77
2023-01-18T11:55:43.944Z,98184.61
2023-01-18T11:58:30.589Z,98177.67
2023-01-18T12:01:22.765Z,98169.60
2023-01-18T12:04:05.209Z,98180.31
2023-01-18T12:06:50.898Z,98182.39
2023-01-18T12:09:30.324Z,98178.46
2023-01-18T12:12:22.601Z,98173.15
2023-01-18T12:14:56.204Z,98184.46
2023-01-18T12:17:34.992Z,98182.48
2023-01-18T12:20:27.669Z,98178.06
2023-01-18T12:23:16.638Z,98195.52
2023-01-18T12:26:11.328Z,98185.60
2023-01-18T12:29:08.454Z,98192.78
2023-01-18T12:31:38.548Z,98183.89
2023-01-18T12:34:07.462Z,98189.17
2023-01-18T12:36:37.151Z,98191.27
2023-01-18T12:39:12.747Z,98202.27
2023-01-18T12:41:48.022Z,98188.90
2023-01-18T12:44:30.038Z,98199.05
2023-01-18T12:47:16.674Z,98195.59
2023-01-18T12:49:48.492Z,98190.50
2023-01-18T12:52:19.316Z,98195.30
2023-01-18T12:54:48.352Z,98204.23
2023-01-18T12:57:17.226Z,98205.71
2023-01-18T12:59:59.996Z,98205.41
2023-01-18T13:02:41.607Z,98222.46
2023-01-18T13:05:20.648Z,98212.98
2023-01-18T13:07:53.225Z,98219.17
2023-01-18T13:10:24.760Z,98208.84
2023-01-18T13:12:52.127Z,98208.01
2023-01-18T13:15:28.232Z,98203.70
2023-01-18T13:18:15.962Z,98218.41
2023-01-18T13:20:51.908Z,98199.56
2023-01-18T13:29:53.554Z,98221.31
2023-01-18T13:32:31.421Z,98197.40
2023-01-18T13:35:19.060Z,98201.62
2023-01-18T13:37:50.436Z,98217.02
2023-01-18T13:40:31.268Z,98208.75
2023-01-18T13:42:58.348Z,98211.86
2023-01-18T13:45:27.903Z,98222.84
2023-01-18T13:48:04.357Z,98228.83
2023-01-18T13:50:31.538Z,98241.02
2023-01-18T13:53:14.010Z,98236.77
2023-01-18T13:55:46.099Z,98234.15
2023-01-18T13:58:20.564Z,98239.62
2023-01-18T14:00:48.192Z,98241.55
2023-01-18T14:03:21.311Z,98239.25
2023-01-18T14:05:48.203Z,98234.27
2023-01-18T14:08:28.669Z,98231.21
2023-01-18T14:11:09.691Z,98228.90
2023-01-18T14:14:00.183Z,98234.58
2023-01-18T14:16:29.703Z,98239.13
2023-01-18T14:19:00.260Z,98223.06
2023-01-18T14:21:53.120Z,98228.59
2023-01-18T14:24:40.964Z,98242.66
2023-01-18T14:27:14.126Z,98214.16
2023-01-18T14:29:43.398Z,98223.33
2023-01-18T14:32:14.657Z,98216.53
2023-01-18T14:34:41.403Z,98214.20
2023-01-18T14:37:31.430Z,98212.83
2023-01-18T14:40:14.078Z,98219.46
2023-01-18T14:42:51.768Z,98215.31
2023-01-18T14:45:29.278Z,98217.73
2023-01-18T14:48:09.574Z,98226.60
2023-01-18T14:50:41.345Z,98218.23
2023-01-18T14:53:14.267Z,98234.78
2023-01-18T14:55:42.184Z,98232.61
2023-01-18T14:58:16.520Z,98239.46
2023-01-18T15:00:51.462Z,98257.54
2023-01-18T15:03:29.690Z,98272.65
2023-01-18T15:06:20.029Z,98266.38
2023-01-18T15:08:46.982Z,98277.39
2023-01-18T15:11:14.123Z,98275.52
2023-01-18T15:13:51.336Z,98283.97
2023-01-18T15:16:23.230Z,98260.49
2023-01-18T15:18:51.595Z,98273.43
2023-01-18T15:21:23.583Z,98282.06
2023-01-18T15:23:52.080Z,98273.58
2023-01-18T15:26:41.430Z,98272.48
2023-01-18T15:29:30.212Z,98281.27
2023-01-18T15:31:58.309Z,98291.05
2023-01-18T15:34:31.110Z,98281.70
2023-01-18T15:36:58.923Z,98276.06
2023-01-18T15:39:26.368Z,98281.95
2023-01-18T15:41:54.015Z,98293.77
2023-01-18T15:44:31.412Z,98295.29
2023-01-18T15:46:58.220Z,98292.16
2023-01-18T15:49:24.965Z,98300.11
2023-01-18T15:51:52.349Z,98295.33
2023-01-18T15:54:20.392Z,98274.39
2023-01-18T15:56:47.475Z,98283.40
2023-01-18T15:59:18.380Z,98288.80
2023-01-18T16:01:48.854Z,98278.83
2023-01-18T16:04:21.313Z,98271.52
2023-01-18T16:06:48.168Z,98277.89
2023-01-18T16:09:15.406Z,98254.10
2023-01-18T16:11:52.107Z,98272.10
2023-01-18T16:14:28.259Z,98282.39
2023-01-18T16:16:56.020Z,98295.29
2023-01-18T16:19:43.390Z,98289.48
2023-01-18T16:22:32.749Z,98289.90
2023-01-18T16:25:07.356Z,98296.25
2023-01-18T16:27:49.477Z,98301.40
2023-01-18T16:30:40.542Z,98309.81
2023-01-18T16:33:17.994Z,98302.71
2023-01-18T16:35:45.384Z,98297.66
2023-01-18T16:38:13.343Z,98314.99
2023-01-18T16:40:41.073Z,98312.05
2023-01-18T16:43:26.118Z,98316.80
2023-01-18T16:45:55.024Z,98316.54
2023-01-18T16:48:23.440Z,98321.27
2023-01-18T16:50:52.940Z,98325.04
2023-01-18T16:53:19.774Z,98315.20
2023-01-18T16:55:49.581Z,98329.86
2023-01-18T16:58:18.456Z,98332.50
2023-01-18T17:00:57.485Z,98330.34
2023-01-18T17:03:24.498Z,98336.37
2023-01-18T17:05:51.499Z,98336.05
2023-01-18T17:08:18.523Z,98337.73
2023-01-18T17:10:46.774Z,98343.41
2023-01-18T17:13:14.032Z,98354.75
2023-01-18T17:15:41.907Z,98349.84
2023-01-18T17:18:27.341Z,98360.77
2023-01-18T17:20:55.360Z,98361.70
2023-01-18T17:23:25.463Z,98360.58
2023-01-18T17:25:52.343Z,98363.98
2023-01-18T17:28:19.176Z,98363.74
2023-01-18T17:30:47.074Z,98380.14
2023-01-18T17:33:21.345Z,98389.04
2023-01-18T17:35:49.022Z,98394.16
2023-01-18T17:38:23.738Z,98384.59
2023-01-18T17:40:52.525Z,98405.17
2023-01-18T17:43:33.267Z,98394.05
2023-01-18T17:46:02.433Z,98406.77
2023-01-18T17:48:29.583Z,98409.00
2023-01-18T17:50:56.245Z,98403.39
2023-01-18T17:53:23.004Z,98418.10
2023-01-18T17:55:49.906Z,98412.91
2023-01-18T17:58:16.778Z,98429.37
2023-01-18T18:00:44.085Z,98410.52
2023-01-18T18:03:10.773Z,98410.78
2023-01-18T18:05:37.657Z,98417.81
2023-01-18T18:08:06.064Z,98433.54
2023-01-18T18:10:33.427Z,98430.51
2023-01-18T18:13:01.058Z,98459.66
2023-01-18T18:15:28.914Z,98453.64
2023-01-18T18:17:55.922Z,98462.70
2023-01-18T18:20:23.100Z,98468.41
2023-01-18T18:22:49.970Z,98455.78
2023-01-18T18:25:19.233Z,98466.59
2023-01-18T18:27:47.015Z,98468.02
2023-01-18T18:30:16.267Z,98448.52
2023-01-18T18:32:42.929Z,98443.73
2023-01-18T18:35:23.870Z,98442.71
2023-01-18T18:37:53.120Z,98451.86
2023-01-18T18:40:23.737Z,98443.92
2023-01-18T18:43:01.302Z,98458.95
2023-01-18T18:45:30.864Z,98469.90
2023-01-18T18:47:57.591Z,98451.67
2023-01-18T18:50:24.522Z,98462.39
2023-01-18T18:52:52.399Z,98473.33
2023-01-18T18:55:20.666Z,98472.17
2023-01-18T18:57:47.505Z,98471.89
2023-01-18T19:00:15.791Z,98478.63
2023-01-18T19:02:43.819Z,98468.12
2023-01-18T19:05:11.601Z,98476.36
2023-01-18T19:07:38.292Z,98483.45
2023-01-18T19:10:06.029Z,98487.73
2023-01-18T19:12:33.158Z,98493.87
2023-01-18T19:15:00.215Z,98504.63
2023-01-18T19:17:30.872Z,98518.80
2023-01-18T19:19:58.864Z,98509.30
2023-01-18T19:22:25.975Z,98517.09
2023-01-18T19:24:53.132Z,98529.64
2023-01-18T19:27:21.227Z,98521.05
2023-01-18T19:29:47.795Z,98532.70
2023-01-18T19:32:18.202Z,98543.98
2023-01-18T19:34:45.375Z,98548.06
2023-01-18T19:37:12.595Z,98546.08
2023-01-18T19:39:39.416Z,98548.42
2023-01-18T19:42:06.878Z,98554.15
2023-01-18T19:44:33.838Z,98555.36
2023-01-18T19:47:01.124Z,98560.45
2023-01-18T19:49:28.008Z,98566.21
2023-01-18T19:51:55.208Z,98577.98
2023-01-18T19:54:22.137Z,98592.64
2023-01-18T19:56:49.081Z,98586.54
2023-01-18T19:59:16.320Z,98593.84
2023-01-18T20:01:44.350Z,98592.28
2023-01-18T20:04:12.567Z,98592.73
2023-01-18T20:06:39.327Z,98601.41
2023-01-18T20:09:12.806Z,98614.70
2023-01-18T20:11:45.360Z,98617.98
2023-01-18T20:14:12.179Z,98625.55
2023-01-18T20:16:39.327Z,98642.08
2023-01-18T20:19:06.252Z,98639.42
2023-01-18T20:21:33.203Z,98631.90
2023-01-18T20:24:00.377Z,98644.20
2023-01-18T20:26:35.765Z,98656.55
2023-01-18T20:29:08.144Z,98659.84
2023-01-18T20:31:35.973Z,98670.52
2023-01-18T20:34:03.516Z,98682.66
2023-01-18T20:36:30.450Z,98665.20
2023-01-18T20:38:57.195Z,98673.29
2023-01-18T20:41:24.101Z,98678.18
2023-01-18T20:43:51.556Z,98692.96
2023-01-18T20:46:20.100Z,98691.73
2023-01-18T20:48:47.112Z,98701.91
2023-01-18T20:51:14.189Z,98706.26
2023-01-18T20:53:42.224Z,98689.20
2023-01-18T20:56:23.385Z,98693.38
2023-01-18T20:58:54.185Z,98695.28
2023-01-18T21:01:20.983Z,98697.36
2023-01-18T21:03:54.639Z,98692.36
2023-01-18T21:06:21.901Z,98704.77
2023-01-18T21:08:53.636Z,98702.98
2023-01-18T21:11:24.822Z,98699.20
2023-01-18T21:13:55.603Z,98700.79
2023-01-18T21:16:22.933Z,98694.77
2023-01-18T21:18:52.042Z,98699.81
2023-01-18T21:21:19.548Z,98707.04
2023-01-18T21:23:46.548Z,98708.91
2023-01-18T21:26:14.102Z,98711.45
2023-01-18T21:28:40.875Z,98717.65
2023-01-18T21:31:07.601Z,98718.16
2023-01-18T21:33:34.861Z,98717.05
2023-01-18T21:36:06.229Z,98725.64
2023-01-18T21:38:32.939Z,98745.05
2023-01-18T21:41:19.592Z,98753.41
2023-01-18T21:44:05.051Z,98749.35
2023-01-18T21:46:31.787Z,98750.23
2023-01-18T21:49:03.244Z,98759.23
2023-01-18T21:51:50.687Z,98762.73
2023-01-18T21:54:17.486Z,98764.96
2023-01-18T21:56:44.718Z,98768.53
2023-01-18T21:59:11.876Z,98765.83
2023-01-18T22:01:41.849Z,98768.36
2023-01-18T22:04:30.053Z,98765.02
2023-01-18T22:06:58.678Z,98777.67
2023-01-18T22:09:27.021Z,98776.85
2023-01-18T22:11:57.875Z,98778.81
2023-01-18T22:14:25.070Z,98782.85
2023-01-18T22:16:52.655Z,98783.14
2023-01-18T22:19:19.321Z,98784.07
2023-01-18T22:21:46.320Z,98787.98
2023-01-18T22:24:13.388Z,98798.63
2023-01-18T22:26:40.744Z,98803.45
2023-01-18T22:29:07.691Z,98807.92
2023-01-18T22:31:35.151Z,98809.13
2023-01-18T22:34:04.468Z,98808.29
2023-01-18T22:36:32.677Z,98806.61
2023-01-18T22:38:59.352Z,98810.52
2023-01-18T22:41:27.140Z,98820.15
2023-01-18T22:43:54.077Z,98825.33
2023-01-18T22:46:21.470Z,98834.25
2023-01-18T22:48:51.822Z,98846.58
2023-01-18T22:51:20.641Z,98850.82
2023-01-18T22:53:47.460Z,98855.59
2023-01-18T22:56:16.170Z,98854.73
2023-01-18T22:58:42.907Z,98849.72
2023-01-18T23:01:24.450Z,98844.94
2023-01-18T23:03:51.993Z,98843.33
2023-01-18T23:06:19.397Z,98844.64
2023-01-18T23:08:46.665Z,98844.75
2023-01-18T23:11:17.245Z,98845.96
2023-01-18T23:14:05.269Z,98848.84
2023-01-18T23:16:51.854Z,98859.80
2023-01-18T23:19:18.646Z,98865.55
2023-01-18T23:21:45.375Z,98866.45
2023-01-18T23:24:12.053Z,98863.48
2023-01-18T23:26:38.626Z,98873.52
2023-01-18T23:29:06.060Z,98883.80
2023-01-18T23:31:33.410Z,98889.12
2023-01-18T23:34:00.153Z,98899.48
2023-01-18T23:36:27.024Z,98908.80
2023-01-18T23:39:12.785Z,98915.91
2023-01-18T23:41:58.183Z,98923.80
2023-01-18T23:44:46.165Z,98925.95
2023-01-18T23:47:31.583Z,98932.72
2023-01-18T23:50:17.159Z,98951.84
2023-01-18T23:53:02.697Z,98960.58
2023-01-18T23:55:29.362Z,98961.16
2023-01-18T23:57:55.940Z,98967.20
